sensor_id;sensor_type;location;lat;lon;timestamp;P1;durP1;ratioP1;P2;durP2;ratioP2
1885;SDS011;943;51.568;6.998;2023-05-17T00:01:48;19.37;;;9.67;;
1885;SDS011;943;51.568;6.998;2023-05-17T00:04:16;17.10;;;8.60;;
1885;SDS011;943;51.568;6.998;2023-05-17T00:06:44;17.47;;;9.50;;
1885;SDS011;943;51.568;6.998;2023-05-17T00:09:12;17.70;;;9.60;;
1885;SDS011;943;51.568;6.998;2023-05-17T00:11:40;14.07;;;10.03;;
1885;SDS011;943;51.568;6.998;2023-05-17T00:14:08;19.23;;;9.63;;
1885;SDS011;943;51.568;6.998;2023-05-17T00:16:36;17.30;;;10.00;;
1885;SDS011;943;51.568;6.998;2023-05-17T00:19:04;19.20;;;10.80;;
1885;SDS011;943;51.568;6.998;2023-05-17T00:21:32;19.10;;;10.90;;
1885;SDS011;943;51.568;6.998;2023-05-17T00:24:01;17.07;;;10.23;;
1885;SDS011;943;51.568;6.998;2023-05-17T00:26:29;19.50;;;9.87;;
1885;SDS011;943;51.568;6.998;2023-05-17T00:28:59;20.10;;;10.90;;
1885;SDS011;943;51.568;6.998;2023-05-17T00:31:27;24.70;;;11.70;;
1885;SDS011;943;51.568;6.998;2023-05-17T00:33:55;25.17;;;10.10;;
1885;SDS011;943;51.568;6.998;2023-05-17T00:36:23;21.47;;;10.63;;
1885;SDS011;943;51.568;6.998;2023-05-17T00:38:51;17.00;;;11.50;;
1885;SDS011;943;51.568;6.998;2023-05-17T00:41:19;16.40;;;11.27;;
1885;SDS011;943;51.568;6.998;2023-05-17T00:43:47;25.87;;;11.03;;
1885;SDS011;943;51.568;6.998;2023-05-17T00:46:15;20.13;;;10.10;;
1885;SDS011;943;51.568;6.998;2023-05-17T00:48:43;26.80;;;10.70;;
1885;SDS011;943;51.568;6.998;2023-05-17T00:51:11;20.20;;;10.90;;
1885;SDS011;943;51.568;6.998;2023-05-17T00:53:44;21.10;;;11.53;;
1885;SDS011;943;51.568;6.998;2023-05-17T00:56:13;17.03;;;10.33;;
1885;SDS011;943;51.568;6.998;2023-05-17T00:58:41;19.47;;;12.20;;
1885;SDS011;943;51.568;6.998;2023-05-17T01:01:10;20.33;;;11.97;;
1885;SDS011;943;51.568;6.998;2023-05-17T01:03:38;21.43;;;12.30;;
1885;SDS011;943;51.568;6.998;2023-05-17T01:06:06;19.47;;;11.00;;
1885;SDS011;943;51.568;6.998;2023-05-17T01:08:34;24.97;;;13.50;;
1885;SDS011;943;51.568;6.998;2023-05-17T01:11:22;18.60;;;11.03;;
1885;SDS011;943;51.568;6.998;2023-05-17T01:14:37;26.40;;;12.30;;
1885;SDS011;943;51.568;6.998;2023-05-17T01:17:38;20.90;;;11.17;;
1885;SDS011;943;51.568;6.998;2023-05-17T01:20:42;26.43;;;12.17;;
1885;SDS011;943;51.568;6.998;2023-05-17T01:29:14;23.33;;;11.10;;
1885;SDS011;943;51.568;6.998;2023-05-17T01:31:49;26.33;;;13.93;;
1885;SDS011;943;51.568;6.998;2023-05-17T01:34:24;32.17;;;14.90;;
1885;SDS011;943;51.568;6.998;2023-05-17T01:36:55;45.53;;;14.43;;
1885;SDS011;943;51.568;6.998;2023-05-17T01:39:23;29.17;;;15.20;;
1885;SDS011;943;51.568;6.998;2023-05-17T01:42:06;35.30;;;16.70;;
1885;SDS011;943;51.568;6.998;2023-05-17T01:51:00;37.83;;;16.10;;
1885;SDS011;943;51.568;6.998;2023-05-17T01:56:14;37.20;;;15.90;;
1885;SDS011;943;51.568;6.998;2023-05-17T01:58:53;25.63;;;14.13;;
1885;SDS011;943;51.568;6.998;2023-05-17T02:01:25;31.67;;;16.30;;
1885;SDS011;943;51.568;6.998;2023-05-17T02:03:57;26.00;;;14.07;;
1885;SDS011;943;51.568;6.998;2023-05-17T02:06:25;32.63;;;15.03;;
1885;SDS011;943;51.568;6.998;2023-05-17T02:08:53;28.83;;;12.93;;
1885;SDS011;943;51.568;6.998;2023-05-17T02:11:21;26.20;;;11.83;;
1885;SDS011;943;51.568;6.998;2023-05-17T02:13:51;29.63;;;13.67;;
1885;SDS011;943;51.568;6.998;2023-05-17T02:16:19;25.47;;;14.20;;
1885;SDS011;943;51.568;6.998;2023-05-17T02:18:48;34.37;;;15.93;;
1885;SDS011;943;51.568;6.998;2023-05-17T02:21:16;30.40;;;14.60;;
1885;SDS011;943;51.568;6.998;2023-05-17T02:23:44;36.90;;;14.20;;
1885;SDS011;943;51.568;6.998;2023-05-17T02:26:12;32.57;;;15.23;;
1885;SDS011;943;51.568;6.998;2023-05-17T02:28:39;29.40;;;13.57;;
1885;SDS011;943;51.568;6.998;2023-05-17T02:31:07;42.10;;;16.00;;
1885;SDS011;943;51.568;6.998;2023-05-17T02:33:35;31.00;;;14.20;;
1885;SDS011;943;51.568;6.998;2023-05-17T02:36:03;32.43;;;13.20;;
1885;SDS011;943;51.568;6.998;2023-05-17T02:38:32;28.30;;;13.73;;
1885;SDS011;943;51.568;6.998;2023-05-17T02:41:00;30.77;;;14.30;;
1885;SDS011;943;51.568;6.998;2023-05-17T02:43:30;33.73;;;15.47;;
1885;SDS011;943;51.568;6.998;2023-05-17T02:45:58;35.93;;;16.33;;
1885;SDS011;943;51.568;6.998;2023-05-17T02:48:26;34.37;;;16.57;;
1885;SDS011;943;51.568;6.998;2023-05-17T02:50:54;34.40;;;16.37;;
1885;SDS011;943;51.568;6.998;2023-05-17T02:53:22;37.30;;;16.20;;
1885;SDS011;943;51.568;6.998;2023-05-17T02:55:50;34.40;;;16.13;;
1885;SDS011;943;51.568;6.998;2023-05-17T02:58:18;38.17;;;16.57;;
1885;SDS011;943;51.568;6.998;2023-05-17T03:00:46;35.33;;;16.80;;
1885;SDS011;943;51.568;6.998;2023-05-17T03:03:14;45.40;;;18.33;;
1885;SDS011;943;51.568;6.998;2023-05-17T03:05:42;38.10;;;17.83;;
1885;SDS011;943;51.568;6.998;2023-05-17T03:08:10;41.90;;;17.60;;
1885;SDS011;943;51.568;6.998;2023-05-17T03:10:38;53.50;;;17.40;;
1885;SDS011;943;51.568;6.998;2023-05-17T03:13:07;39.80;;;16.97;;
1885;SDS011;943;51.568;6.998;2023-05-17T03:15:38;34.37;;;16.10;;
1885;SDS011;943;51.568;6.998;2023-05-17T03:18:06;43.43;;;17.20;;
1885;SDS011;943;51.568;6.998;2023-05-17T03:20:36;39.53;;;17.40;;
1885;SDS011;943;51.568;6.998;2023-05-17T03:23:05;43.63;;;16.60;;
1885;SDS011;943;51.568;6.998;2023-05-17T03:25:38;37.23;;;16.77;;
1885;SDS011;943;51.568;6.998;2023-05-17T03:28:07;34.53;;;16.23;;
1885;SDS011;943;51.568;6.998;2023-05-17T03:30:35;38.43;;;16.17;;
1885;SDS011;943;51.568;6.998;2023-05-17T03:33:03;38.90;;;14.97;;
1885;SDS011;943;51.568;6.998;2023-05-17T03:35:32;39.97;;;16.13;;
1885;SDS011;943;51.568;6.998;2023-05-17T03:38:01;38.83;;;15.30;;
1885;SDS011;943;51.568;6.998;2023-05-17T03:40:29;39.57;;;16.63;;
1885;SDS011;943;51.568;6.998;2023-05-17T03:42:58;37.33;;;15.20;;
1885;SDS011;943;51.568;6.998;2023-05-17T03:45:27;40.70;;;16.07;;
1885;SDS011;943;51.568;6.998;2023-05-17T03:47:55;43.70;;;15.10;;
1885;SDS011;943;51.568;6.998;2023-05-17T03:50:26;44.97;;;16.47;;
1885;SDS011;943;51.568;6.998;2023-05-17T03:52:54;31.47;;;15.20;;
1885;SDS011;943;51.568;6.998;2023-05-17T03:55:23;37.93;;;16.70;;
1885;SDS011;943;51.568;6.998;2023-05-17T03:57:51;41.30;;;15.17;;
1885;SDS011;943;51.568;6.998;2023-05-17T04:00:22;36.97;;;16.20;;
1885;SDS011;943;51.568;6.998;2023-05-17T04:02:57;43.23;;;18.37;;
1885;SDS011;943;51.568;6.998;2023-05-17T04:05:25;45.47;;;18.57;;
1885;SDS011;943;51.568;6.998;2023-05-17T04:07:53;38.93;;;17.47;;
1885;SDS011;943;51.568;6.998;2023-05-17T04:10:22;41.70;;;16.20;;
1885;SDS011;943;51.568;6.998;2023-05-17T04:12:50;48.33;;;17.60;;
1885;SDS011;943;51.568;6.998;2023-05-17T04:15:18;50.23;;;17.10;;
1885;SDS011;943;51.568;6.998;2023-05-17T04:17:47;54.10;;;17.47;;
1885;SDS011;943;51.568;6.998;2023-05-17T04:20:15;39.33;;;16.20;;
1885;SDS011;943;51.568;6.998;2023-05-17T04:22:44;39.57;;;17.43;;
1885;SDS011;943;51.568;6.998;2023-05-17T04:25:13;40.20;;;15.17;;
1885;SDS011;943;51.568;6.998;2023-05-17T04:27:41;43.77;;;15.50;;
1885;SDS011;943;51.568;6.998;2023-05-17T04:30:10;35.13;;;16.70;;
1885;SDS011;943;51.568;6.998;2023-05-17T04:32:39;35.03;;;15.30;;
1885;SDS011;943;51.568;6.998;2023-05-17T04:35:08;42.90;;;15.43;;
1885;SDS011;943;51.568;6.998;2023-05-17T04:37:37;48.00;;;17.03;;
1885;SDS011;943;51.568;6.998;2023-05-17T04:40:15;31.10;;;15.23;;
1885;SDS011;943;51.568;6.998;2023-05-17T04:42:45;39.70;;;16.43;;
1885;SDS011;943;51.568;6.998;2023-05-17T04:45:14;40.70;;;15.43;;
1885;SDS011;943;51.568;6.998;2023-05-17T04:47:43;41.63;;;15.27;;
1885;SDS011;943;51.568;6.998;2023-05-17T04:50:13;40.47;;;17.33;;
1885;SDS011;943;51.568;6.998;2023-05-17T04:52:41;34.20;;;15.03;;
1885;SDS011;943;51.568;6.998;2023-05-17T04:55:10;30.53;;;15.57;;
1885;SDS011;943;51.568;6.998;2023-05-17T04:57:39;43.90;;;17.40;;
1885;SDS011;943;51.568;6.998;2023-05-17T05:00:10;36.50;;;15.60;;
1885;SDS011;943;51.568;6.998;2023-05-17T05:02:43;42.40;;;17.07;;
1885;SDS011;943;51.568;6.998;2023-05-17T05:05:12;42.47;;;15.80;;
1885;SDS011;943;51.568;6.998;2023-05-17T05:07:42;41.23;;;15.73;;
1885;SDS011;943;51.568;6.998;2023-05-17T05:10:11;38.10;;;15.23;;
1885;SDS011;943;51.568;6.998;2023-05-17T05:12:40;42.73;;;16.97;;
1885;SDS011;943;51.568;6.998;2023-05-17T05:15:11;33.00;;;15.90;;
1885;SDS011;943;51.568;6.998;2023-05-17T05:17:42;44.77;;;15.83;;
1885;SDS011;943;51.568;6.998;2023-05-17T05:20:11;45.47;;;17.07;;
1885;SDS011;943;51.568;6.998;2023-05-17T05:22:40;45.00;;;15.53;;
1885;SDS011;943;51.568;6.998;2023-05-17T05:25:09;40.37;;;16.10;;
1885;SDS011;943;51.568;6.998;2023-05-17T05:27:37;29.50;;;14.00;;
1885;SDS011;943;51.568;6.998;2023-05-17T05:30:06;37.33;;;15.07;;
1885;SDS011;943;51.568;6.998;2023-05-17T05:32:36;35.53;;;13.33;;
1885;SDS011;943;51.568;6.998;2023-05-17T05:35:07;49.00;;;13.73;;
1885;SDS011;943;51.568;6.998;2023-05-17T05:37:36;35.60;;;12.93;;
1885;SDS011;943;51.568;6.998;2023-05-17T05:40:04;33.90;;;13.97;;
1885;SDS011;943;51.568;6.998;2023-05-17T05:42:34;35.20;;;12.77;;
1885;SDS011;943;51.568;6.998;2023-05-17T05:45:03;19.43;;;9.10;;
1885;SDS011;943;51.568;6.998;2023-05-17T05:47:32;28.53;;;8.77;;
1885;SDS011;943;51.568;6.998;2023-05-17T05:50:01;21.80;;;7.80;;
1885;SDS011;943;51.568;6.998;2023-05-17T05:52:35;17.33;;;6.90;;
1885;SDS011;943;51.568;6.998;2023-05-17T05:55:03;19.83;;;7.60;;
1885;SDS011;943;51.568;6.998;2023-05-17T05:57:33;17.43;;;7.57;;
1885;SDS011;943;51.568;6.998;2023-05-17T06:00:04;14.67;;;5.43;;
1885;SDS011;943;51.568;6.998;2023-05-17T06:02:40;20.40;;;6.33;;
1885;SDS011;943;51.568;6.998;2023-05-17T06:05:09;10.00;;;5.20;;
1885;SDS011;943;51.568;6.998;2023-05-17T06:07:37;13.73;;;5.33;;
1885;SDS011;943;51.568;6.998;2023-05-17T06:10:05;10.83;;;4.30;;
1885;SDS011;943;51.568;6.998;2023-05-17T06:12:34;13.20;;;4.30;;
1885;SDS011;943;51.568;6.998;2023-05-17T06:15:02;14.07;;;4.63;;
1885;SDS011;943;51.568;6.998;2023-05-17T06:17:33;17.63;;;4.30;;
1885;SDS011;943;51.568;6.998;2023-05-17T06:20:01;10.60;;;3.63;;
1885;SDS011;943;51.568;6.998;2023-05-17T06:22:30;14.63;;;4.30;;
1885;SDS011;943;51.568;6.998;2023-05-17T06:24:58;14.77;;;4.30;;
1885;SDS011;943;51.568;6.998;2023-05-17T06:27:26;15.13;;;4.53;;
1885;SDS011;943;51.568;6.998;2023-05-17T06:29:57;17.17;;;4.57;;
1885;SDS011;943;51.568;6.998;2023-05-17T06:32:26;11.77;;;3.47;;
1885;SDS011;943;51.568;6.998;2023-05-17T06:34:54;20.93;;;4.77;;
1885;SDS011;943;51.568;6.998;2023-05-17T06:37:23;12.47;;;3.93;;
1885;SDS011;943;51.568;6.998;2023-05-17T06:40:00;12.20;;;4.60;;
1885;SDS011;943;51.568;6.998;2023-05-17T06:42:41;9.67;;;4.20;;
1885;SDS011;943;51.568;6.998;2023-05-17T06:45:10;19.70;;;4.37;;
1885;SDS011;943;51.568;6.998;2023-05-17T06:47:38;16.50;;;3.63;;
1885;SDS011;943;51.568;6.998;2023-05-17T06:50:07;13.93;;;5.00;;
1885;SDS011;943;51.568;6.998;2023-05-17T06:52:36;12.20;;;4.57;;
1885;SDS011;943;51.568;6.998;2023-05-17T06:55:04;9.93;;;4.27;;
1885;SDS011;943;51.568;6.998;2023-05-17T06:57:33;16.97;;;4.53;;
1885;SDS011;943;51.568;6.998;2023-05-17T07:00:03;10.47;;;4.40;;
1885;SDS011;943;51.568;6.998;2023-05-17T07:02:36;14.03;;;3.80;;
1885;SDS011;943;51.568;6.998;2023-05-17T07:05:04;15.37;;;3.83;;
1885;SDS011;943;51.568;6.998;2023-05-17T07:07:33;18.13;;;4.10;;
1885;SDS011;943;51.568;6.998;2023-05-17T07:10:02;15.03;;;4.17;;
1885;SDS011;943;51.568;6.998;2023-05-17T07:12:33;13.53;;;3.80;;
1885;SDS011;943;51.568;6.998;2023-05-17T07:15:00;10.03;;;3.30;;
1885;SDS011;943;51.568;6.998;2023-05-17T07:17:29;10.80;;;3.47;;
1885;SDS011;943;51.568;6.998;2023-05-17T07:19:57;17.83;;;4.60;;
1885;SDS011;943;51.568;6.998;2023-05-17T07:22:25;16.60;;;3.13;;
1885;SDS011;943;51.568;6.998;2023-05-17T07:24:53;10.53;;;2.70;;
1885;SDS011;943;51.568;6.998;2023-05-17T07:27:21;10.70;;;3.00;;
1885;SDS011;943;51.568;6.998;2023-05-17T07:29:49;8.00;;;2.43;;
1885;SDS011;943;51.568;6.998;2023-05-17T07:32:17;9.47;;;2.83;;
1885;SDS011;943;51.568;6.998;2023-05-17T07:34:45;5.60;;;2.17;;
1885;SDS011;943;51.568;6.998;2023-05-17T07:37:13;11.00;;;2.10;;
1885;SDS011;943;51.568;6.998;2023-05-17T07:39:41;8.83;;;2.30;;
1885;SDS011;943;51.568;6.998;2023-05-17T07:42:10;7.83;;;2.20;;
1885;SDS011;943;51.568;6.998;2023-05-17T07:44:38;8.90;;;2.40;;
1885;SDS011;943;51.568;6.998;2023-05-17T07:47:06;14.73;;;2.13;;
1885;SDS011;943;51.568;6.998;2023-05-17T07:49:34;6.57;;;2.10;;
1885;SDS011;943;51.568;6.998;2023-05-17T07:52:03;11.27;;;2.20;;
1885;SDS011;943;51.568;6.998;2023-05-17T07:54:31;8.17;;;2.57;;
1885;SDS011;943;51.568;6.998;2023-05-17T07:57:00;8.03;;;2.90;;
1885;SDS011;943;51.568;6.998;2023-05-17T07:59:29;9.37;;;2.10;;
1885;SDS011;943;51.568;6.998;2023-05-17T08:01:57;7.50;;;2.90;;
1885;SDS011;943;51.568;6.998;2023-05-17T08:04:25;5.03;;;1.93;;
1885;SDS011;943;51.568;6.998;2023-05-17T08:06:52;8.27;;;2.37;;
1885;SDS011;943;51.568;6.998;2023-05-17T08:09:21;12.70;;;2.67;;
1885;SDS011;943;51.568;6.998;2023-05-17T08:11:49;14.30;;;3.00;;
1885;SDS011;943;51.568;6.998;2023-05-17T08:14:17;7.10;;;2.30;;
1885;SDS011;943;51.568;6.998;2023-05-17T08:16:51;10.57;;;2.90;;
1885;SDS011;943;51.568;6.998;2023-05-17T08:19:19;7.90;;;2.40;;
1885;SDS011;943;51.568;6.998;2023-05-17T08:21:47;9.03;;;2.30;;
1885;SDS011;943;51.568;6.998;2023-05-17T08:24:15;7.90;;;2.17;;
1885;SDS011;943;51.568;6.998;2023-05-17T08:26:45;9.90;;;2.30;;
1885;SDS011;943;51.568;6.998;2023-05-17T08:29:13;9.63;;;2.60;;
1885;SDS011;943;51.568;6.998;2023-05-17T08:31:41;8.73;;;3.20;;
1885;SDS011;943;51.568;6.998;2023-05-17T08:34:11;11.33;;;2.93;;
1885;SDS011;943;51.568;6.998;2023-05-17T08:36:39;8.50;;;2.40;;
1885;SDS011;943;51.568;6.998;2023-05-17T08:39:07;9.63;;;2.30;;
1885;SDS011;943;51.568;6.998;2023-05-17T08:41:35;8.50;;;3.17;;
1885;SDS011;943;51.568;6.998;2023-05-17T08:44:03;8.30;;;2.30;;
1885;SDS011;943;51.568;6.998;2023-05-17T08:46:33;6.87;;;2.70;;
1885;SDS011;943;51.568;6.998;2023-05-17T08:49:04;7.33;;;2.43;;
1885;SDS011;943;51.568;6.998;2023-05-17T08:51:34;13.03;;;2.73;;
1885;SDS011;943;51.568;6.998;2023-05-17T08:54:05;14.37;;;2.10;;
1885;SDS011;943;51.568;6.998;2023-05-17T08:56:34;10.50;;;3.50;;
1885;SDS011;943;51.568;6.998;2023-05-17T08:59:08;8.00;;;3.07;;
1885;SDS011;943;51.568;6.998;2023-05-17T09:01:38;6.07;;;2.33;;
1885;SDS011;943;51.568;6.998;2023-05-17T09:04:10;7.40;;;2.10;;
1885;SDS011;943;51.568;6.998;2023-05-17T09:06:38;12.80;;;4.60;;
1885;SDS011;943;51.568;6.998;2023-05-17T09:09:06;5.00;;;2.10;;
1885;SDS011;943;51.568;6.998;2023-05-17T09:11:34;10.97;;;2.97;;
1885;SDS011;943;51.568;6.998;2023-05-17T09:14:03;9.50;;;2.83;;
1885;SDS011;943;51.568;6.998;2023-05-17T09:16:34;10.10;;;2.43;;
1885;SDS011;943;51.568;6.998;2023-05-17T09:19:04;11.47;;;2.50;;
1885;SDS011;943;51.568;6.998;2023-05-17T09:21:35;8.80;;;2.90;;
1885;SDS011;943;51.568;6.998;2023-05-17T09:24:04;10.43;;;2.60;;
1885;SDS011;943;51.568;6.998;2023-05-17T09:26:37;9.10;;;2.70;;
1885;SDS011;943;51.568;6.998;2023-05-17T09:29:14;16.23;;;3.10;;
1885;SDS011;943;51.568;6.998;2023-05-17T09:31:43;10.10;;;2.43;;
1885;SDS011;943;51.568;6.998;2023-05-17T09:34:11;9.33;;;2.50;;
1885;SDS011;943;51.568;6.998;2023-05-17T09:36:45;5.47;;;2.27;;
1885;SDS011;943;51.568;6.998;2023-05-17T09:39:13;8.10;;;2.70;;
1885;SDS011;943;51.568;6.998;2023-05-17T09:41:45;7.83;;;2.83;;
1885;SDS011;943;51.568;6.998;2023-05-17T09:44:15;8.93;;;2.60;;
1885;SDS011;943;51.568;6.998;2023-05-17T09:46:44;9.80;;;2.17;;
1885;SDS011;943;51.568;6.998;2023-05-17T09:49:14;7.27;;;2.20;;
1885;SDS011;943;51.568;6.998;2023-05-17T09:51:44;7.03;;;2.33;;
1885;SDS011;943;51.568;6.998;2023-05-17T09:54:15;8.47;;;3.07;;
1885;SDS011;943;51.568;6.998;2023-05-17T09:56:51;6.83;;;2.33;;
1885;SDS011;943;51.568;6.998;2023-05-17T09:59:20;6.50;;;2.30;;
1885;SDS011;943;51.568;6.998;2023-05-17T10:01:54;7.37;;;2.47;;
1885;SDS011;943;51.568;6.998;2023-05-17T10:04:26;8.73;;;2.77;;
1885;SDS011;943;51.568;6.998;2023-05-17T10:07:03;7.10;;;2.10;;
1885;SDS011;943;51.568;6.998;2023-05-17T10:09:32;8.37;;;2.50;;
1885;SDS011;943;51.568;6.998;2023-05-17T10:12:03;7.47;;;2.40;;
1885;SDS011;943;51.568;6.998;2023-05-17T10:14:35;6.43;;;2.03;;
1885;SDS011;943;51.568;6.998;2023-05-17T10:17:05;6.80;;;2.20;;
1885;SDS011;943;51.568;6.998;2023-05-17T10:19:36;10.20;;;2.37;;
1885;SDS011;943;51.568;6.998;2023-05-17T10:22:06;9.50;;;2.33;;
1885;SDS011;943;51.568;6.998;2023-05-17T10:24:48;8.40;;;2.83;;
1885;SDS011;943;51.568;6.998;2023-05-17T10:27:18;6.00;;;2.13;;
1885;SDS011;943;51.568;6.998;2023-05-17T10:29:48;9.13;;;2.43;;
1885;SDS011;943;51.568;6.998;2023-05-17T10:32:20;10.03;;;2.60;;
1885;SDS011;943;51.568;6.998;2023-05-17T10:34:53;5.57;;;2.27;;
1885;SDS011;943;51.568;6.998;2023-05-17T10:37:38;14.47;;;3.00;;
1885;SDS011;943;51.568;6.998;2023-05-17T10:40:07;8.20;;;2.73;;
1885;SDS011;943;51.568;6.998;2023-05-17T10:42:44;7.20;;;2.40;;
1885;SDS011;943;51.568;6.998;2023-05-17T10:45:20;8.43;;;2.57;;
1885;SDS011;943;51.568;6.998;2023-05-17T10:47:53;8.00;;;2.10;;
1885;SDS011;943;51.568;6.998;2023-05-17T10:50:25;6.30;;;2.70;;
1885;SDS011;943;51.568;6.998;2023-05-17T10:52:54;8.87;;;2.60;;
1885;SDS011;943;51.568;6.998;2023-05-17T10:55:36;6.37;;;1.87;;
1885;SDS011;943;51.568;6.998;2023-05-17T10:58:14;6.37;;;2.30;;
1885;SDS011;943;51.568;6.998;2023-05-17T11:00:49;6.50;;;2.40;;
1885;SDS011;943;51.568;6.998;2023-05-17T11:03:27;8.13;;;1.97;;
1885;SDS011;943;51.568;6.998;2023-05-17T11:12:03;9.60;;;2.90;;
1885;SDS011;943;51.568;6.998;2023-05-17T11:14:42;5.50;;;2.30;;
1885;SDS011;943;51.568;6.998;2023-05-17T11:17:18;4.17;;;1.97;;
1885;SDS011;943;51.568;6.998;2023-05-17T11:20:06;9.90;;;2.47;;
1885;SDS011;943;51.568;6.998;2023-05-17T11:22:48;8.10;;;2.53;;
1885;SDS011;943;51.568;6.998;2023-05-17T11:25:43;7.20;;;2.50;;
1885;SDS011;943;51.568;6.998;2023-05-17T11:28:19;5.50;;;2.30;;
1885;SDS011;943;51.568;6.998;2023-05-17T11:30:48;6.33;;;2.43;;
1885;SDS011;943;51.568;6.998;2023-05-17T11:33:19;6.27;;;2.50;;
1885;SDS011;943;51.568;6.998;2023-05-17T11:36:17;3.80;;;2.20;;
1885;SDS011;943;51.568;6.998;2023-05-17T11:38:49;5.77;;;2.27;;
1885;SDS011;943;51.568;6.998;2023-05-17T11:41:38;9.47;;;2.63;;
1885;SDS011;943;51.568;6.998;2023-05-17T11:44:29;7.63;;;2.80;;
1885;SDS011;943;51.568;6.998;2023-05-17T11:47:04;5.90;;;1.97;;
1885;SDS011;943;51.568;6.998;2023-05-17T11:49:36;7.13;;;2.57;;
1885;SDS011;943;51.568;6.998;2023-05-17T11:52:06;6.40;;;2.20;;
1885;SDS011;943;51.568;6.998;2023-05-17T11:54:36;6.37;;;2.30;;
1885;SDS011;943;51.568;6.998;2023-05-17T11:57:08;6.63;;;2.20;;
1885;SDS011;943;51.568;6.998;2023-05-17T11:59:42;10.23;;;2.60;;
1885;SDS011;943;51.568;6.998;2023-05-17T12:02:24;7.63;;;2.70;;
1885;SDS011;943;51.568;6.998;2023-05-17T12:04:59;5.97;;;1.87;;
1885;SDS011;943;51.568;6.998;2023-05-17T12:07:27;8.57;;;2.23;;
1885;SDS011;943;51.568;6.998;2023-05-17T12:09:56;5.80;;;2.50;;
1885;SDS011;943;51.568;6.998;2023-05-17T12:12:23;7.00;;;2.13;;
1885;SDS011;943;51.568;6.998;2023-05-17T12:14:52;6.87;;;2.13;;
1885;SDS011;943;51.568;6.998;2023-05-17T12:17:25;8.47;;;2.37;;
1885;SDS011;943;51.568;6.998;2023-05-17T12:20:07;10.40;;;3.00;;
1885;SDS011;943;51.568;6.998;2023-05-17T12:22:51;8.37;;;2.80;;
1885;SDS011;943;51.568;6.998;2023-05-17T12:25:23;5.90;;;2.10;;
1885;SDS011;943;51.568;6.998;2023-05-17T12:30:53;6.17;;;2.40;;
1885;SDS011;943;51.568;6.998;2023-05-17T12:33:26;5.90;;;2.27;;
1885;SDS011;943;51.568;6.998;2023-05-17T12:36:03;4.73;;;2.20;;
1885;SDS011;943;51.568;6.998;2023-05-17T12:38:33;8.00;;;2.70;;
1885;SDS011;943;51.568;6.998;2023-05-17T12:41:07;7.13;;;2.83;;
1885;SDS011;943;51.568;6.998;2023-05-17T12:43:42;11.23;;;2.70;;
1885;SDS011;943;51.568;6.998;2023-05-17T12:46:13;6.00;;;2.00;;
1885;SDS011;943;51.568;6.998;2023-05-17T12:48:50;6.23;;;2.67;;
1885;SDS011;943;51.568;6.998;2023-05-17T12:51:20;7.07;;;2.40;;
1885;SDS011;943;51.568;6.998;2023-05-17T12:53:50;6.30;;;2.60;;
1885;SDS011;943;51.568;6.998;2023-05-17T12:56:28;4.00;;;2.10;;
1885;SDS011;943;51.568;6.998;2023-05-17T12:59:03;7.17;;;2.80;;
1885;SDS011;943;51.568;6.998;2023-05-17T13:01:50;12.47;;;2.93;;
1885;SDS011;943;51.568;6.998;2023-05-17T13:04:29;5.10;;;2.80;;
1885;SDS011;943;51.568;6.998;2023-05-17T13:07:03;5.57;;;2.07;;
1885;SDS011;943;51.568;6.998;2023-05-17T13:09:32;6.73;;;3.00;;
1885;SDS011;943;51.568;6.998;2023-05-17T13:12:21;8.13;;;2.70;;
1885;SDS011;943;51.568;6.998;2023-05-17T13:14:52;4.50;;;2.27;;
1885;SDS011;943;51.568;6.998;2023-05-17T13:20:02;9.40;;;2.47;;
1885;SDS011;943;51.568;6.998;2023-05-17T13:22:39;6.23;;;2.80;;
1885;SDS011;943;51.568;6.998;2023-05-17T13:25:12;7.03;;;2.50;;
1885;SDS011;943;51.568;6.998;2023-05-17T13:27:41;8.93;;;2.30;;
1885;SDS011;943;51.568;6.998;2023-05-17T13:30:14;6.17;;;2.60;;
1885;SDS011;943;51.568;6.998;2023-05-17T13:32:43;6.40;;;2.00;;
1885;SDS011;943;51.568;6.998;2023-05-17T13:35:13;5.87;;;2.27;;
1885;SDS011;943;51.568;6.998;2023-05-17T13:37:41;7.23;;;2.50;;
1885;SDS011;943;51.568;6.998;2023-05-17T13:40:09;6.13;;;2.47;;
1885;SDS011;943;51.568;6.998;2023-05-17T13:42:38;10.63;;;2.87;;
1885;SDS011;943;51.568;6.998;2023-05-17T13:45:06;8.87;;;2.57;;
1885;SDS011;943;51.568;6.998;2023-05-17T13:47:35;9.60;;;3.40;;
1885;SDS011;943;51.568;6.998;2023-05-17T13:50:03;10.77;;;3.03;;
1885;SDS011;943;51.568;6.998;2023-05-17T13:52:33;9.00;;;2.63;;
1885;SDS011;943;51.568;6.998;2023-05-17T13:55:01;6.53;;;2.73;;
1885;SDS011;943;51.568;6.998;2023-05-17T13:57:30;11.13;;;2.87;;
1885;SDS011;943;51.568;6.998;2023-05-17T13:59:58;8.90;;;2.27;;
1885;SDS011;943;51.568;6.998;2023-05-17T14:02:26;10.70;;;2.40;;
1885;SDS011;943;51.568;6.998;2023-05-17T14:04:53;6.17;;;1.67;;
1885;SDS011;943;51.568;6.998;2023-05-17T14:07:21;11.90;;;3.77;;
1885;SDS011;943;51.568;6.998;2023-05-17T14:09:49;9.60;;;2.00;;
1885;SDS011;943;51.568;6.998;2023-05-17T14:12:17;6.53;;;2.83;;
1885;SDS011;943;51.568;6.998;2023-05-17T14:14:45;6.47;;;2.70;;
1885;SDS011;943;51.568;6.998;2023-05-17T14:17:13;9.50;;;2.57;;
1885;SDS011;943;51.568;6.998;2023-05-17T14:19:41;7.57;;;2.60;;
1885;SDS011;943;51.568;6.998;2023-05-17T14:22:09;9.10;;;2.87;;
1885;SDS011;943;51.568;6.998;2023-05-17T14:24:37;6.97;;;2.50;;
1885;SDS011;943;51.568;6.998;2023-05-17T14:27:04;9.00;;;2.13;;
1885;SDS011;943;51.568;6.998;2023-05-17T14:29:32;9.50;;;3.73;;
1885;SDS011;943;51.568;6.998;2023-05-17T14:32:00;11.97;;;3.80;;
1885;SDS011;943;51.568;6.998;2023-05-17T14:34:28;11.20;;;2.67;;
1885;SDS011;943;51.568;6.998;2023-05-17T14:36:56;11.20;;;2.63;;
1885;SDS011;943;51.568;6.998;2023-05-17T14:39:24;8.50;;;2.53;;
1885;SDS011;943;51.568;6.998;2023-05-17T14:41:52;11.00;;;2.20;;
1885;SDS011;943;51.568;6.998;2023-05-17T14:44:20;11.60;;;2.70;;
1885;SDS011;943;51.568;6.998;2023-05-17T14:46:48;7.83;;;3.17;;
1885;SDS011;943;51.568;6.998;2023-05-17T14:49:15;8.53;;;2.77;;
1885;SDS011;943;51.568;6.998;2023-05-17T14:51:44;11.00;;;3.07;;
1885;SDS011;943;51.568;6.998;2023-05-17T14:54:12;10.80;;;3.60;;
1885;SDS011;943;51.568;6.998;2023-05-17T14:56:40;10.17;;;3.00;;
1885;SDS011;943;51.568;6.998;2023-05-17T14:59:08;10.10;;;3.00;;
1885;SDS011;943;51.568;6.998;2023-05-17T15:01:36;9.63;;;3.33;;
1885;SDS011;943;51.568;6.998;2023-05-17T15:04:03;11.10;;;3.10;;
1885;SDS011;943;51.568;6.998;2023-05-17T15:06:33;7.37;;;2.80;;
1885;SDS011;943;51.568;6.998;2023-05-17T15:09:01;9.17;;;3.13;;
1885;SDS011;943;51.568;6.998;2023-05-17T15:11:29;9.13;;;2.83;;
1885;SDS011;943;51.568;6.998;2023-05-17T15:13:57;12.90;;;3.20;;
1885;SDS011;943;51.568;6.998;2023-05-17T15:16:26;10.57;;;3.27;;
1885;SDS011;943;51.568;6.998;2023-05-17T15:18:54;11.73;;;3.63;;
1885;SDS011;943;51.568;6.998;2023-05-17T15:21:26;7.43;;;2.60;;
1885;SDS011;943;51.568;6.998;2023-05-17T15:23:54;10.57;;;3.20;;
1885;SDS011;943;51.568;6.998;2023-05-17T15:26:22;12.97;;;3.03;;
1885;SDS011;943;51.568;6.998;2023-05-17T15:28:49;10.00;;;3.47;;
1885;SDS011;943;51.568;6.998;2023-05-17T15:31:17;12.77;;;3.80;;
1885;SDS011;943;51.568;6.998;2023-05-17T15:33:46;13.63;;;3.20;;
1885;SDS011;943;51.568;6.998;2023-05-17T15:36:14;12.20;;;2.67;;
1885;SDS011;943;51.568;6.998;2023-05-17T15:38:42;8.87;;;3.20;;
1885;SDS011;943;51.568;6.998;2023-05-17T15:41:12;8.50;;;2.80;;
1885;SDS011;943;51.568;6.998;2023-05-17T15:43:44;9.70;;;2.77;;
1885;SDS011;943;51.568;6.998;2023-05-17T15:46:12;9.67;;;2.93;;
1885;SDS011;943;51.568;6.998;2023-05-17T15:48:40;8.80;;;3.00;;
1885;SDS011;943;51.568;6.998;2023-05-17T15:51:08;8.03;;;2.70;;
1885;SDS011;943;51.568;6.998;2023-05-17T15:53:37;9.27;;;2.33;;
1885;SDS011;943;51.568;6.998;2023-05-17T15:56:05;8.17;;;2.83;;
1885;SDS011;943;51.568;6.998;2023-05-17T15:58:36;7.20;;;2.70;;
1885;SDS011;943;51.568;6.998;2023-05-17T16:01:04;7.73;;;3.30;;
1885;SDS011;943;51.568;6.998;2023-05-17T16:03:32;12.90;;;2.90;;
1885;SDS011;943;51.568;6.998;2023-05-17T16:06:01;11.53;;;3.23;;